MHTG Airport Information

Runway Information
Runway 02 Length 6112 ft width 148 ft
Elevation 3337 ft Threshold 670 ft Heading 19
Runway 20 Length 6112 ft Width 148 ft
Elevation 3268 ft Threshold 0 ft Heading 199
Airport Frequencies
Type APP Name TONCONTIN Frequency 119.1 MHZ
Type ATIS Name ATIS Frequency 112.3 MHZ
Type GND Name GND Frequency 121.9 MHZ
Type RDO Name TEGUCIGALP Frequency 126.7 MHZ
Type TWR Name TWR Frequency 118.7 MHZ
Airport Navaids
Type NDB Name Picacho Frequency 334 KHZ
Type VOR-DME Name Toncontin Frequency 112300 KHZ
Type NDB Name Toncontin Frequency 405 KHZ
Airport Weather Information & NOTAM
ADDS - METARS form results

(2021 UTC 22 July 2018)
 
METAR text: MHTG 222000Z 04008KT 8000 SCT032 SCT250 29/16 Q1018 A3006 NOSIG
Conditions at: MHTG (TEGUCIGALPA/TON , HN) observed 2000 UTC 22 July 2018
Temperature: 29.0°C (84°F)
Dewpoint: 16.0°C (61°F) [RH = 45%]
Pressure (altimeter): 30.06 inches Hg (1018.0 mb)
Winds: from the NE (40 degrees) at 9 MPH (8 knots; 4.2 m/s)
Visibility: 5 miles (8 km)
Ceiling: at least 12,000 feet AGL
Clouds: scattered clouds at 3200 feet AGL
scattered clouds at 25000 feet AGL
Weather: no significant weather observed at this time